sensor_id;sensor_type;location;lat;lon;timestamp;pressure;altitude;pressure_sealevel;temperature;humidity
17781;BME280;8498;52.516;13.790;2022-09-19T00:03:10;100131.03;;;12.87;82.64
17781;BME280;8498;52.516;13.790;2022-09-19T00:08:33;100148.50;;;12.38;85.29
17781;BME280;8498;52.516;13.790;2022-09-19T00:13:57;100143.06;;;12.61;85.15
17781;BME280;8498;52.516;13.790;2022-09-19T00:19:21;100140.34;;;12.72;83.68
17781;BME280;8498;52.516;13.790;2022-09-19T00:24:43;100142.41;;;12.68;84.08
17781;BME280;8498;52.516;13.790;2022-09-19T00:30:09;100141.00;;;12.64;85.10
17781;BME280;8498;52.516;13.790;2022-09-19T00:35:31;100157.53;;;12.47;84.93
17781;BME280;8498;52.516;13.790;2022-09-19T00:40:55;100161.19;;;12.67;84.13
17781;BME280;8498;52.516;13.790;2022-09-19T01:02:06;100166.44;;;12.78;82.99
17781;BME280;8498;52.516;13.790;2022-09-19T01:07:39;100168.66;;;12.52;84.04
17781;BME280;8498;52.516;13.790;2022-09-19T01:18:46;100169.09;;;12.36;85.28
17781;BME280;8498;52.516;13.790;2022-09-19T01:29:48;100177.69;;;12.61;84.27
17781;BME280;8498;52.516;13.790;2022-09-19T01:35:13;100182.59;;;12.56;84.39
17781;BME280;8498;52.516;13.790;2022-09-19T01:40:38;100183.09;;;12.49;83.05
17781;BME280;8498;52.516;13.790;2022-09-19T01:46:30;100201.25;;;12.56;83.19
17781;BME280;8498;52.516;13.790;2022-09-19T01:52:13;100197.84;;;12.54;82.87
17781;BME280;8498;52.516;13.790;2022-09-19T01:57:55;100201.09;;;12.25;84.29
17781;BME280;8498;52.516;13.790;2022-09-19T02:08:57;100211.22;;;12.42;84.55
17781;BME280;8498;52.516;13.790;2022-09-19T02:14:39;100211.94;;;12.44;83.58
17781;BME280;8498;52.516;13.790;2022-09-19T02:20:13;100214.09;;;12.50;83.24
17781;BME280;8498;52.516;13.790;2022-09-19T02:25:39;100229.22;;;12.50;83.30
17781;BME280;8498;52.516;13.790;2022-09-19T02:31:05;100231.09;;;12.38;84.13
17781;BME280;8498;52.516;13.790;2022-09-19T02:42:58;100235.19;;;11.99;85.67
17781;BME280;8498;52.516;13.790;2022-09-19T02:48:42;100241.72;;;11.95;86.08
17781;BME280;8498;52.516;13.790;2022-09-19T02:54:23;100246.56;;;12.12;85.48
17781;BME280;8498;52.516;13.790;2022-09-19T02:59:49;100250.22;;;12.00;85.85
17781;BME280;8498;52.516;13.790;2022-09-19T03:05:19;100259.47;;;12.17;85.71
17781;BME280;8498;52.516;13.790;2022-09-19T03:10:46;100264.13;;;12.04;86.60
17781;BME280;8498;52.516;13.790;2022-09-19T03:16:30;100264.63;;;11.75;88.07
17781;BME280;8498;52.516;13.790;2022-09-19T03:21:57;100275.97;;;12.11;86.98
17781;BME280;8498;52.516;13.790;2022-09-19T03:27:25;100269.78;;;12.10;85.49
17781;BME280;8498;52.516;13.790;2022-09-19T03:32:48;100276.41;;;12.27;84.71
17781;BME280;8498;52.516;13.790;2022-09-19T03:38:11;100286.09;;;12.28;85.10
17781;BME280;8498;52.516;13.790;2022-09-19T03:43:34;100283.28;;;12.41;84.48
17781;BME280;8498;52.516;13.790;2022-09-19T03:48:59;100293.44;;;11.93;86.32
17781;BME280;8498;52.516;13.790;2022-09-19T03:54:23;100300.44;;;11.83;88.08
17781;BME280;8498;52.516;13.790;2022-09-19T03:59:45;100309.84;;;12.20;86.56
17781;BME280;8498;52.516;13.790;2022-09-19T04:05:09;100319.47;;;12.43;85.12
17781;BME280;8498;52.516;13.790;2022-09-19T04:10:31;100319.19;;;12.15;86.10
17781;BME280;8498;52.516;13.790;2022-09-19T04:15:54;100317.81;;;12.20;86.02
17781;BME280;8498;52.516;13.790;2022-09-19T04:21:17;100315.88;;;12.33;86.14
17781;BME280;8498;52.516;13.790;2022-09-19T04:26:44;100316.31;;;12.38;84.83
17781;BME280;8498;52.516;13.790;2022-09-19T04:32:07;100331.72;;;12.35;85.61
17781;BME280;8498;52.516;13.790;2022-09-19T04:37:30;100329.50;;;12.51;84.88
17781;BME280;8498;52.516;13.790;2022-09-19T04:43:09;100334.88;;;12.18;86.46
17781;BME280;8498;52.516;13.790;2022-09-19T04:48:34;100340.06;;;12.41;86.43
17781;BME280;8498;52.516;13.790;2022-09-19T04:53:57;100339.56;;;12.36;86.61
17781;BME280;8498;52.516;13.790;2022-09-19T04:59:20;100348.31;;;12.27;87.02
17781;BME280;8498;52.516;13.790;2022-09-19T05:04:43;100349.78;;;12.20;88.01
17781;BME280;8498;52.516;13.790;2022-09-19T05:10:08;100351.72;;;12.18;87.94
17781;BME280;8498;52.516;13.790;2022-09-19T05:15:33;100360.44;;;12.20;88.54
17781;BME280;8498;52.516;13.790;2022-09-19T05:20:56;100358.00;;;12.28;88.33
17781;BME280;8498;52.516;13.790;2022-09-19T05:26:18;100370.34;;;12.29;88.42
17781;BME280;8498;52.516;13.790;2022-09-19T05:31:47;100362.22;;;12.42;87.42
17781;BME280;8498;52.516;13.790;2022-09-19T05:37:17;100380.28;;;12.16;88.57
17781;BME280;8498;52.516;13.790;2022-09-19T05:42:58;100386.81;;;12.45;87.76
17781;BME280;8498;52.516;13.790;2022-09-19T05:48:25;100381.69;;;12.54;87.71
17781;BME280;8498;52.516;13.790;2022-09-19T05:53:48;100394.50;;;12.60;87.40
17781;BME280;8498;52.516;13.790;2022-09-19T05:59:27;100400.34;;;12.54;87.68
17781;BME280;8498;52.516;13.790;2022-09-19T06:04:50;100407.59;;;12.63;87.71
17781;BME280;8498;52.516;13.790;2022-09-19T06:10:12;100412.44;;;12.46;89.00
17781;BME280;8498;52.516;13.790;2022-09-19T06:15:35;100424.81;;;12.36;90.82
17781;BME280;8498;52.516;13.790;2022-09-19T06:20:59;100424.56;;;12.50;90.22
17781;BME280;8498;52.516;13.790;2022-09-19T06:26:25;100437.53;;;12.44;91.61
17781;BME280;8498;52.516;13.790;2022-09-19T06:31:48;100436.69;;;12.55;91.67
17781;BME280;8498;52.516;13.790;2022-09-19T06:37:13;100450.97;;;12.65;91.30
17781;BME280;8498;52.516;13.790;2022-09-19T06:42:36;100451.44;;;12.47;93.74
17781;BME280;8498;52.516;13.790;2022-09-19T06:48:17;100455.69;;;12.61;93.08
17781;BME280;8498;52.516;13.790;2022-09-19T06:53:48;100459.44;;;12.70;93.76
17781;BME280;8498;52.516;13.790;2022-09-19T06:59:11;100463.91;;;12.69;93.85
17781;BME280;8498;52.516;13.790;2022-09-19T07:04:34;100456.97;;;12.78;93.73
17781;BME280;8498;52.516;13.790;2022-09-19T07:10:03;100461.63;;;12.76;94.43
17781;BME280;8498;52.516;13.790;2022-09-19T07:15:34;100471.13;;;12.90;93.58
17781;BME280;8498;52.516;13.790;2022-09-19T07:21:01;100479.97;;;13.01;93.82
17781;BME280;8498;52.516;13.790;2022-09-19T07:26:27;100482.50;;;13.25;92.57
17781;BME280;8498;52.516;13.790;2022-09-19T07:31:49;100485.75;;;13.29;92.74
17781;BME280;8498;52.516;13.790;2022-09-19T07:37:12;100494.94;;;13.36;92.29
17781;BME280;8498;52.516;13.790;2022-09-19T07:42:37;100511.16;;;13.44;92.17
17781;BME280;8498;52.516;13.790;2022-09-19T07:48:11;100515.44;;;13.35;92.57
17781;BME280;8498;52.516;13.790;2022-09-19T07:53:53;100521.78;;;13.55;92.07
17781;BME280;8498;52.516;13.790;2022-09-19T07:59:16;100530.22;;;13.71;91.50
17781;BME280;8498;52.516;13.790;2022-09-19T08:04:53;100540.16;;;13.80;90.90
17781;BME280;8498;52.516;13.790;2022-09-19T08:10:18;100543.31;;;13.74;91.02
17781;BME280;8498;52.516;13.790;2022-09-19T08:15:43;100537.78;;;13.87;90.78
17781;BME280;8498;52.516;13.790;2022-09-19T08:21:10;100536.16;;;14.16;89.98
17781;BME280;8498;52.516;13.790;2022-09-19T08:26:35;100551.34;;;14.37;89.12
17781;BME280;8498;52.516;13.790;2022-09-19T08:31:58;100557.09;;;14.32;88.61
17781;BME280;8498;52.516;13.790;2022-09-19T08:37:23;100562.13;;;14.46;88.38
17781;BME280;8498;52.516;13.790;2022-09-19T08:48:22;100581.75;;;14.87;86.23
17781;BME280;8498;52.516;13.790;2022-09-19T08:53:51;100574.50;;;15.08;85.19
17781;BME280;8498;52.516;13.790;2022-09-19T08:59:19;100578.94;;;15.28;84.60
17781;BME280;8498;52.516;13.790;2022-09-19T09:04:46;100585.72;;;15.32;83.84
17781;BME280;8498;52.516;13.790;2022-09-19T09:22:11;100577.22;;;15.96;81.82
17781;BME280;8498;52.516;13.790;2022-09-19T09:33:31;100579.75;;;16.17;79.57
17781;BME280;8498;52.516;13.790;2022-09-19T09:39:07;100591.81;;;16.50;78.87
17781;BME280;8498;52.516;13.790;2022-09-19T09:44:56;100583.75;;;16.69;77.58
17781;BME280;8498;52.516;13.790;2022-09-19T09:56:41;100593.50;;;16.61;74.96
17781;BME280;8498;52.516;13.790;2022-09-19T10:08:33;100596.41;;;17.14;72.10
17781;BME280;8498;52.516;13.790;2022-09-19T10:14:19;100598.75;;;17.54;70.72
17781;BME280;8498;52.516;13.790;2022-09-19T10:19:56;100586.28;;;17.63;67.68
17781;BME280;8498;52.516;13.790;2022-09-19T10:25:21;100587.25;;;18.32;67.20
17781;BME280;8498;52.516;13.790;2022-09-19T10:31:05;100595.28;;;17.71;66.09
17781;BME280;8498;52.516;13.790;2022-09-19T10:36:32;100602.19;;;17.74;62.78
17781;BME280;8498;52.516;13.790;2022-09-19T10:42:01;100622.31;;;16.68;67.14
17781;BME280;8498;52.516;13.790;2022-09-19T10:47:24;100615.81;;;16.32;69.56
17781;BME280;8498;52.516;13.790;2022-09-19T10:53:02;100621.31;;;16.31;70.31
17781;BME280;8498;52.516;13.790;2022-09-19T10:58:26;100611.34;;;16.13;70.56
17781;BME280;8498;52.516;13.790;2022-09-19T11:09:36;100637.72;;;16.18;73.29
17781;BME280;8498;52.516;13.790;2022-09-19T11:15:03;100644.63;;;16.49;72.25
17781;BME280;8498;52.516;13.790;2022-09-19T11:20:40;100639.56;;;15.98;71.21
17781;BME280;8498;52.516;13.790;2022-09-19T11:44:22;100661.53;;;16.21;70.07
17781;BME280;8498;52.516;13.790;2022-09-19T11:51:12;100674.66;;;16.14;70.39
17781;BME280;8498;52.516;13.790;2022-09-19T11:56:09;100671.13;;;16.33;72.27
17781;BME280;8498;52.516;13.790;2022-09-19T12:02:28;100683.84;;;16.50;71.90
17781;BME280;8498;52.516;13.790;2022-09-19T12:19:14;100672.16;;;17.08;68.73
17781;BME280;8498;52.516;13.790;2022-09-19T12:24:43;100676.66;;;17.17;70.13
17781;BME280;8498;52.516;13.790;2022-09-19T12:30:18;100669.78;;;17.69;71.86
17781;BME280;8498;52.516;13.790;2022-09-19T12:36:07;100716.34;;;17.60;74.17
17781;BME280;8498;52.516;13.790;2022-09-19T12:47:24;100701.34;;;16.16;76.22
17781;BME280;8498;52.516;13.790;2022-09-19T12:53:02;100688.88;;;15.86;77.79
17781;BME280;8498;52.516;13.790;2022-09-19T12:58:49;100683.03;;;15.62;78.76
17781;BME280;8498;52.516;13.790;2022-09-19T13:04:54;100687.25;;;15.55;79.54
17781;BME280;8498;52.516;13.790;2022-09-19T13:10:44;100677.97;;;15.68;80.34
17781;BME280;8498;52.516;13.790;2022-09-19T13:16:10;100682.31;;;15.60;80.31
17781;BME280;8498;52.516;13.790;2022-09-19T13:21:37;100691.34;;;15.68;80.98
17781;BME280;8498;52.516;13.790;2022-09-19T13:27:19;100700.63;;;15.55;81.30
17781;BME280;8498;52.516;13.790;2022-09-19T13:32:53;100699.19;;;15.51;81.63
17781;BME280;8498;52.516;13.790;2022-09-19T13:38:24;100705.22;;;15.43;81.39
17781;BME280;8498;52.516;13.790;2022-09-19T13:44:04;100701.94;;;15.39;81.51
17781;BME280;8498;52.516;13.790;2022-09-19T13:49:44;100711.50;;;15.32;81.59
17781;BME280;8498;52.516;13.790;2022-09-19T13:55:17;100718.81;;;15.30;82.95
17781;BME280;8498;52.516;13.790;2022-09-19T14:00:44;100730.16;;;15.43;82.34
17781;BME280;8498;52.516;13.790;2022-09-19T14:06:36;100728.75;;;15.49;81.00
17781;BME280;8498;52.516;13.790;2022-09-19T14:23:42;100748.34;;;15.80;80.87
17781;BME280;8498;52.516;13.790;2022-09-19T14:52:09;100751.53;;;16.04;81.86
17781;BME280;8498;52.516;13.790;2022-09-19T14:57:33;100755.91;;;16.05;81.55
17781;BME280;8498;52.516;13.790;2022-09-19T15:02:57;100754.94;;;16.06;81.69
17781;BME280;8498;52.516;13.790;2022-09-19T15:08:30;100753.50;;;16.02;80.79
17781;BME280;8498;52.516;13.790;2022-09-19T15:13:53;100754.59;;;16.00;81.98
17781;BME280;8498;52.516;13.790;2022-09-19T15:19:19;100775.91;;;16.01;81.99
17781;BME280;8498;52.516;13.790;2022-09-19T15:24:48;100776.94;;;16.20;81.63
17781;BME280;8498;52.516;13.790;2022-09-19T15:30:19;100775.81;;;16.12;80.81
17781;BME280;8498;52.516;13.790;2022-09-19T15:35:43;100776.63;;;16.03;80.89
17781;BME280;8498;52.516;13.790;2022-09-19T15:41:08;100767.59;;;15.95;81.46
17781;BME280;8498;52.516;13.790;2022-09-19T15:46:36;100772.50;;;15.90;81.31
17781;BME280;8498;52.516;13.790;2022-09-19T15:52:05;100776.34;;;15.97;81.58
17781;BME280;8498;52.516;13.790;2022-09-19T15:57:31;100784.25;;;15.98;81.54
17781;BME280;8498;52.516;13.790;2022-09-19T16:02:59;100780.84;;;15.96;81.55
17781;BME280;8498;52.516;13.790;2022-09-19T16:08:26;100781.97;;;15.94;81.82
17781;BME280;8498;52.516;13.790;2022-09-19T16:14:38;100798.31;;;15.91;81.51
17781;BME280;8498;52.516;13.790;2022-09-19T16:20:03;100794.09;;;15.88;81.44
17781;BME280;8498;52.516;13.790;2022-09-19T16:25:38;100807.38;;;15.69;81.08
17781;BME280;8498;52.516;13.790;2022-09-19T16:31:06;100802.00;;;15.69;81.05
17781;BME280;8498;52.516;13.790;2022-09-19T16:36:31;100804.41;;;15.62;80.85
17781;BME280;8498;52.516;13.790;2022-09-19T16:47:18;100807.75;;;15.55;81.64
17781;BME280;8498;52.516;13.790;2022-09-19T16:52:46;100812.47;;;15.51;80.74
17781;BME280;8498;52.516;13.790;2022-09-19T16:58:14;100820.19;;;15.45;81.37
17781;BME280;8498;52.516;13.790;2022-09-19T17:03:36;100836.84;;;15.27;82.00
17781;BME280;8498;52.516;13.790;2022-09-19T17:08:58;100841.28;;;15.17;82.52
17781;BME280;8498;52.516;13.790;2022-09-19T17:14:22;100851.66;;;15.11;81.80
17781;BME280;8498;52.516;13.790;2022-09-19T17:19:45;100852.03;;;15.06;80.99
17781;BME280;8498;52.516;13.790;2022-09-19T17:25:20;100862.03;;;15.04;80.87
17781;BME280;8498;52.516;13.790;2022-09-19T17:30:44;100867.44;;;14.93;80.46
17781;BME280;8498;52.516;13.790;2022-09-19T17:36:10;100865.25;;;14.87;80.29
17781;BME280;8498;52.516;13.790;2022-09-19T17:41:33;100863.81;;;14.83;80.29
17781;BME280;8498;52.516;13.790;2022-09-19T17:46:58;100872.22;;;14.78;79.88
17781;BME280;8498;52.516;13.790;2022-09-19T17:52:21;100867.97;;;14.76;80.25
17781;BME280;8498;52.516;13.790;2022-09-19T17:57:44;100878.34;;;14.69;80.33
17781;BME280;8498;52.516;13.790;2022-09-19T18:03:06;100883.13;;;14.43;81.61
17781;BME280;8498;52.516;13.790;2022-09-19T18:08:41;100889.19;;;14.23;82.44
17781;BME280;8498;52.516;13.790;2022-09-19T18:14:04;100889.81;;;14.15;82.61
17781;BME280;8498;52.516;13.790;2022-09-19T18:19:28;100898.66;;;14.05;82.84
17781;BME280;8498;52.516;13.790;2022-09-19T18:24:51;100885.81;;;13.99;83.56
17781;BME280;8498;52.516;13.790;2022-09-19T18:30:15;100891.16;;;14.32;82.78
17781;BME280;8498;52.516;13.790;2022-09-19T18:35:38;100909.34;;;14.16;81.97
17781;BME280;8498;52.516;13.790;2022-09-19T18:41:01;100899.75;;;14.02;83.48
17781;BME280;8498;52.516;13.790;2022-09-19T18:46:25;100901.94;;;13.97;82.88
17781;BME280;8498;52.516;13.790;2022-09-19T18:51:48;100900.75;;;13.90;83.24
17781;BME280;8498;52.516;13.790;2022-09-19T18:57:10;100918.47;;;13.80;83.42
17781;BME280;8498;52.516;13.790;2022-09-19T19:02:36;100931.66;;;13.81;83.65
17781;BME280;8498;52.516;13.790;2022-09-19T19:07:58;100943.91;;;13.73;84.49
17781;BME280;8498;52.516;13.790;2022-09-19T19:13:21;100939.94;;;13.78;85.12
17781;BME280;8498;52.516;13.790;2022-09-19T19:18:46;100935.06;;;13.83;85.17
17781;BME280;8498;52.516;13.790;2022-09-19T19:24:18;100946.59;;;13.84;84.80
17781;BME280;8498;52.516;13.790;2022-09-19T19:29:42;100942.09;;;13.73;84.74
17781;BME280;8498;52.516;13.790;2022-09-19T19:35:05;100944.84;;;13.60;84.56
17781;BME280;8498;52.516;13.790;2022-09-19T19:40:27;100949.19;;;13.50;84.96
17781;BME280;8498;52.516;13.790;2022-09-19T19:45:50;100943.38;;;13.45;85.12
17781;BME280;8498;52.516;13.790;2022-09-19T19:51:16;100948.06;;;13.42;85.31
17781;BME280;8498;52.516;13.790;2022-09-19T19:56:38;100940.00;;;13.54;85.89
17781;BME280;8498;52.516;13.790;2022-09-19T20:02:02;100948.66;;;13.69;85.99
17781;BME280;8498;52.516;13.790;2022-09-19T20:07:25;100944.16;;;13.70;86.11
17781;BME280;8498;52.516;13.790;2022-09-19T20:12:48;100943.06;;;13.72;86.43
17781;BME280;8498;52.516;13.790;2022-09-19T20:18:11;100938.97;;;13.79;86.56
17781;BME280;8498;52.516;13.790;2022-09-19T20:23:34;100938.22;;;13.77;86.45
17781;BME280;8498;52.516;13.790;2022-09-19T20:29:01;100940.16;;;13.75;86.42
17781;BME280;8498;52.516;13.790;2022-09-19T20:34:23;100940.66;;;13.69;86.59
17781;BME280;8498;52.516;13.790;2022-09-19T20:39:46;100946.31;;;13.65;86.82
17781;BME280;8498;52.516;13.790;2022-09-19T20:45:08;100942.56;;;13.67;86.74
17781;BME280;8498;52.516;13.790;2022-09-19T20:50:31;100950.84;;;13.75;86.28
17781;BME280;8498;52.516;13.790;2022-09-19T20:55:55;100949.75;;;13.78;85.60
17781;BME280;8498;52.516;13.790;2022-09-19T21:01:19;100954.47;;;13.74;84.98
17781;BME280;8498;52.516;13.790;2022-09-19T21:06:42;100954.47;;;13.74;84.87
17781;BME280;8498;52.516;13.790;2022-09-19T21:12:05;100947.53;;;13.72;85.14
17781;BME280;8498;52.516;13.790;2022-09-19T21:17:48;100940.50;;;13.59;84.80
17781;BME280;8498;52.516;13.790;2022-09-19T21:23:11;100947.09;;;13.43;85.00
17781;BME280;8498;52.516;13.790;2022-09-19T21:28:34;100950.09;;;13.27;85.46
17781;BME280;8498;52.516;13.790;2022-09-19T21:33:59;100960.72;;;13.16;85.61
17781;BME280;8498;52.516;13.790;2022-09-19T21:39:22;100962.28;;;13.18;85.75
17781;BME280;8498;52.516;13.790;2022-09-19T21:44:44;100979.28;;;13.17;85.58
17781;BME280;8498;52.516;13.790;2022-09-19T21:50:07;100975.09;;;13.13;85.68
17781;BME280;8498;52.516;13.790;2022-09-19T21:55:29;100968.25;;;13.09;85.95
17781;BME280;8498;52.516;13.790;2022-09-19T22:00:52;100973.59;;;13.09;85.53
17781;BME280;8498;52.516;13.790;2022-09-19T22:06:15;100972.25;;;13.16;85.41
17781;BME280;8498;52.516;13.790;2022-09-19T22:11:38;100972.13;;;13.18;85.68
17781;BME280;8498;52.516;13.790;2022-09-19T22:17:01;100980.03;;;13.07;85.67
17781;BME280;8498;52.516;13.790;2022-09-19T22:22:24;100985.69;;;13.02;85.80
17781;BME280;8498;52.516;13.790;2022-09-19T22:27:46;100981.31;;;13.01;86.11
17781;BME280;8498;52.516;13.790;2022-09-19T22:33:08;100990.19;;;13.02;86.18
17781;BME280;8498;52.516;13.790;2022-09-19T22:38:31;100991.13;;;13.01;85.63
17781;BME280;8498;52.516;13.790;2022-09-19T22:43:54;100997.16;;;12.92;85.67
17781;BME280;8498;52.516;13.790;2022-09-19T22:49:17;101002.94;;;12.85;86.62
17781;BME280;8498;52.516;13.790;2022-09-19T22:54:40;101009.63;;;12.91;86.38
17781;BME280;8498;52.516;13.790;2022-09-19T23:00:04;101009.34;;;12.83;85.36
17781;BME280;8498;52.516;13.790;2022-09-19T23:05:26;101007.63;;;12.82;85.85
17781;BME280;8498;52.516;13.790;2022-09-19T23:10:58;101014.31;;;12.87;85.24
17781;BME280;8498;52.516;13.790;2022-09-19T23:16:24;101018.19;;;12.83;85.27
17781;BME280;8498;52.516;13.790;2022-09-19T23:21:50;101026.84;;;12.74;85.51
17781;BME280;8498;52.516;13.790;2022-09-19T23:27:12;101029.97;;;12.56;85.95
17781;BME280;8498;52.516;13.790;2022-09-19T23:32:35;101030.28;;;12.64;86.35
17781;BME280;8498;52.516;13.790;2022-09-19T23:37:57;101034.31;;;12.69;85.80
17781;BME280;8498;52.516;13.790;2022-09-19T23:43:20;101030.69;;;12.70;85.82
17781;BME280;8498;52.516;13.790;2022-09-19T23:48:43;101037.53;;;12.62;85.65
17781;BME280;8498;52.516;13.790;2022-09-19T23:54:05;101034.47;;;12.55;85.64
17781;BME280;8498;52.516;13.790;2022-09-19T23:59:28;101042.09;;;12.60;85.77
